sensor_id;sensor_type;location;lat;lon;timestamp;temperature;humidity
59282;DHT22;45054;52.062;10.010;2023-12-28T00:01:04;8.00;99.90
59282;DHT22;45054;52.062;10.010;2023-12-28T00:03:30;8.00;99.90
59282;DHT22;45054;52.062;10.010;2023-12-28T00:05:55;8.00;99.90
59282;DHT22;45054;52.062;10.010;2023-12-28T00:08:21;8.00;99.90
59282;DHT22;45054;52.062;10.010;2023-12-28T00:10:46;8.00;99.90
59282;DHT22;45054;52.062;10.010;2023-12-28T00:13:12;8.10;99.90
59282;DHT22;45054;52.062;10.010;2023-12-28T00:15:39;8.10;99.90
59282;DHT22;45054;52.062;10.010;2023-12-28T00:18:04;8.00;99.90
59282;DHT22;45054;52.062;10.010;2023-12-28T00:20:30;8.00;99.90
59282;DHT22;45054;52.062;10.010;2023-12-28T00:22:55;8.10;99.90
59282;DHT22;45054;52.062;10.010;2023-12-28T00:25:21;8.10;99.90
59282;DHT22;45054;52.062;10.010;2023-12-28T00:27:47;8.20;99.90
59282;DHT22;45054;52.062;10.010;2023-12-28T00:30:13;8.20;99.90
59282;DHT22;45054;52.062;10.010;2023-12-28T00:32:40;8.20;99.90
59282;DHT22;45054;52.062;10.010;2023-12-28T00:35:06;8.20;99.90
59282;DHT22;45054;52.062;10.010;2023-12-28T00:37:31;8.30;99.90
59282;DHT22;45054;52.062;10.010;2023-12-28T00:39:57;8.30;99.90
59282;DHT22;45054;52.062;10.010;2023-12-28T00:42:22;8.40;99.90
59282;DHT22;45054;52.062;10.010;2023-12-28T00:44:48;8.40;99.90
59282;DHT22;45054;52.062;10.010;2023-12-28T00:47:13;8.50;99.90
59282;DHT22;45054;52.062;10.010;2023-12-28T00:49:40;8.60;99.90
59282;DHT22;45054;52.062;10.010;2023-12-28T00:52:06;8.70;99.90
59282;DHT22;45054;52.062;10.010;2023-12-28T00:54:31;8.70;99.90
59282;DHT22;45054;52.062;10.010;2023-12-28T00:56:57;8.70;99.90
59282;DHT22;45054;52.062;10.010;2023-12-28T00:59:23;8.70;99.90
59282;DHT22;45054;52.062;10.010;2023-12-28T01:01:48;8.70;99.90
59282;DHT22;45054;52.062;10.010;2023-12-28T01:04:14;8.70;99.90
59282;DHT22;45054;52.062;10.010;2023-12-28T01:06:41;8.70;99.90
59282;DHT22;45054;52.062;10.010;2023-12-28T01:09:06;8.70;99.90
59282;DHT22;45054;52.062;10.010;2023-12-28T01:11:32;8.70;99.90
59282;DHT22;45054;52.062;10.010;2023-12-28T01:13:57;8.70;99.90
59282;DHT22;45054;52.062;10.010;2023-12-28T01:16:23;8.70;99.90
59282;DHT22;45054;52.062;10.010;2023-12-28T01:18:48;8.70;99.90
59282;DHT22;45054;52.062;10.010;2023-12-28T01:21:14;8.70;99.90
59282;DHT22;45054;52.062;10.010;2023-12-28T01:23:41;8.70;99.90
59282;DHT22;45054;52.062;10.010;2023-12-28T01:26:12;8.70;99.90
59282;DHT22;45054;52.062;10.010;2023-12-28T01:28:37;8.70;99.90
59282;DHT22;45054;52.062;10.010;2023-12-28T01:31:03;8.70;99.90
59282;DHT22;45054;52.062;10.010;2023-12-28T01:33:29;8.80;99.90
59282;DHT22;45054;52.062;10.010;2023-12-28T01:35:54;8.70;99.90
59282;DHT22;45054;52.062;10.010;2023-12-28T01:38:20;8.70;99.90
59282;DHT22;45054;52.062;10.010;2023-12-28T01:40:47;8.70;99.90
59282;DHT22;45054;52.062;10.010;2023-12-28T01:43:13;8.70;99.90
59282;DHT22;45054;52.062;10.010;2023-12-28T01:45:38;8.70;99.90
59282;DHT22;45054;52.062;10.010;2023-12-28T01:48:04;8.60;99.90
59282;DHT22;45054;52.062;10.010;2023-12-28T01:50:30;8.60;99.90
59282;DHT22;45054;52.062;10.010;2023-12-28T01:52:58;8.50;99.90
59282;DHT22;45054;52.062;10.010;2023-12-28T01:55:26;8.50;99.90
59282;DHT22;45054;52.062;10.010;2023-12-28T01:57:54;8.50;99.90
59282;DHT22;45054;52.062;10.010;2023-12-28T02:00:21;8.50;99.90
59282;DHT22;45054;52.062;10.010;2023-12-28T02:02:47;8.60;99.90
59282;DHT22;45054;52.062;10.010;2023-12-28T02:05:13;8.60;99.90
59282;DHT22;45054;52.062;10.010;2023-12-28T02:07:39;8.60;99.90
59282;DHT22;45054;52.062;10.010;2023-12-28T02:10:06;8.50;99.90
59282;DHT22;45054;52.062;10.010;2023-12-28T02:12:31;8.50;99.90
59282;DHT22;45054;52.062;10.010;2023-12-28T02:14:58;8.50;99.90
59282;DHT22;45054;52.062;10.010;2023-12-28T02:17:30;8.50;99.90
59282;DHT22;45054;52.062;10.010;2023-12-28T02:19:58;8.60;99.90
59282;DHT22;45054;52.062;10.010;2023-12-28T02:22:26;8.50;99.90
59282;DHT22;45054;52.062;10.010;2023-12-28T02:25:06;8.50;99.90
59282;DHT22;45054;52.062;10.010;2023-12-28T02:27:33;8.50;99.90
59282;DHT22;45054;52.062;10.010;2023-12-28T02:29:59;8.50;99.90
59282;DHT22;45054;52.062;10.010;2023-12-28T02:32:33;8.50;99.90
59282;DHT22;45054;52.062;10.010;2023-12-28T02:35:06;8.60;99.90
59282;DHT22;45054;52.062;10.010;2023-12-28T02:37:34;8.60;99.90
59282;DHT22;45054;52.062;10.010;2023-12-28T02:40:03;8.60;99.90
59282;DHT22;45054;52.062;10.010;2023-12-28T02:42:29;8.60;99.90
59282;DHT22;45054;52.062;10.010;2023-12-28T02:44:54;8.60;99.90
59282;DHT22;45054;52.062;10.010;2023-12-28T02:47:20;8.60;99.90
59282;DHT22;45054;52.062;10.010;2023-12-28T02:49:45;8.50;99.90
59282;DHT22;45054;52.062;10.010;2023-12-28T02:52:11;8.60;99.90
59282;DHT22;45054;52.062;10.010;2023-12-28T02:54:36;8.70;99.90
59282;DHT22;45054;52.062;10.010;2023-12-28T02:57:04;8.60;99.90
59282;DHT22;45054;52.062;10.010;2023-12-28T02:59:29;8.60;99.90
59282;DHT22;45054;52.062;10.010;2023-12-28T03:01:55;8.60;99.90
59282;DHT22;45054;52.062;10.010;2023-12-28T03:04:21;8.50;99.90
59282;DHT22;45054;52.062;10.010;2023-12-28T03:06:46;8.50;99.90
59282;DHT22;45054;52.062;10.010;2023-12-28T03:09:12;8.50;99.90
59282;DHT22;45054;52.062;10.010;2023-12-28T03:11:38;8.50;99.90
59282;DHT22;45054;52.062;10.010;2023-12-28T03:14:04;8.50;99.90
59282;DHT22;45054;52.062;10.010;2023-12-28T03:16:30;8.40;99.90
59282;DHT22;45054;52.062;10.010;2023-12-28T03:18:56;8.40;99.90
59282;DHT22;45054;52.062;10.010;2023-12-28T03:21:21;8.50;99.90
59282;DHT22;45054;52.062;10.010;2023-12-28T03:23:47;8.50;99.90
59282;DHT22;45054;52.062;10.010;2023-12-28T03:26:12;8.50;99.90
59282;DHT22;45054;52.062;10.010;2023-12-28T03:28:39;8.50;99.90
59282;DHT22;45054;52.062;10.010;2023-12-28T03:31:06;8.50;99.90
59282;DHT22;45054;52.062;10.010;2023-12-28T03:33:32;8.50;99.90
59282;DHT22;45054;52.062;10.010;2023-12-28T03:35:57;8.50;99.90
59282;DHT22;45054;52.062;10.010;2023-12-28T03:38:23;8.60;99.90
59282;DHT22;45054;52.062;10.010;2023-12-28T03:40:48;8.60;99.90
59282;DHT22;45054;52.062;10.010;2023-12-28T03:43:14;8.60;99.90
59282;DHT22;45054;52.062;10.010;2023-12-28T03:45:40;8.60;99.90
59282;DHT22;45054;52.062;10.010;2023-12-28T03:48:07;8.60;99.90
59282;DHT22;45054;52.062;10.010;2023-12-28T03:50:32;8.60;99.90
59282;DHT22;45054;52.062;10.010;2023-12-28T03:52:58;8.60;99.90
59282;DHT22;45054;52.062;10.010;2023-12-28T03:55:23;8.50;99.90
59282;DHT22;45054;52.062;10.010;2023-12-28T03:57:49;8.60;99.90
59282;DHT22;45054;52.062;10.010;2023-12-28T04:00:14;8.50;99.90
59282;DHT22;45054;52.062;10.010;2023-12-28T04:02:40;8.50;99.90
59282;DHT22;45054;52.062;10.010;2023-12-28T04:05:07;8.50;99.90
59282;DHT22;45054;52.062;10.010;2023-12-28T04:07:33;8.50;99.90
59282;DHT22;45054;52.062;10.010;2023-12-28T04:09:58;8.50;99.90
59282;DHT22;45054;52.062;10.010;2023-12-28T04:12:24;8.50;99.90
59282;DHT22;45054;52.062;10.010;2023-12-28T04:14:49;8.50;99.90
59282;DHT22;45054;52.062;10.010;2023-12-28T04:17:15;8.50;99.90
59282;DHT22;45054;52.062;10.010;2023-12-28T04:19:41;8.50;99.90
59282;DHT22;45054;52.062;10.010;2023-12-28T04:22:07;8.50;99.90
59282;DHT22;45054;52.062;10.010;2023-12-28T04:24:33;8.60;99.90
59282;DHT22;45054;52.062;10.010;2023-12-28T04:26:58;8.50;99.90
59282;DHT22;45054;52.062;10.010;2023-12-28T04:29:24;8.60;99.90
59282;DHT22;45054;52.062;10.010;2023-12-28T04:31:50;8.60;99.90
59282;DHT22;45054;52.062;10.010;2023-12-28T04:34:15;8.60;99.90
59282;DHT22;45054;52.062;10.010;2023-12-28T04:36:41;8.60;99.90
59282;DHT22;45054;52.062;10.010;2023-12-28T04:39:08;8.70;99.90
59282;DHT22;45054;52.062;10.010;2023-12-28T04:41:34;8.70;99.90
59282;DHT22;45054;52.062;10.010;2023-12-28T04:43:59;8.60;99.90
59282;DHT22;45054;52.062;10.010;2023-12-28T04:46:25;8.60;99.90
59282;DHT22;45054;52.062;10.010;2023-12-28T04:48:50;8.60;99.90
59282;DHT22;45054;52.062;10.010;2023-12-28T04:51:16;8.60;99.90
59282;DHT22;45054;52.062;10.010;2023-12-28T04:53:41;8.60;99.90
59282;DHT22;45054;52.062;10.010;2023-12-28T04:56:08;8.60;99.90
59282;DHT22;45054;52.062;10.010;2023-12-28T04:58:34;8.50;99.90
59282;DHT22;45054;52.062;10.010;2023-12-28T05:01:01;8.60;99.90
59282;DHT22;45054;52.062;10.010;2023-12-28T05:03:27;8.60;99.90
59282;DHT22;45054;52.062;10.010;2023-12-28T05:05:52;8.60;99.90
59282;DHT22;45054;52.062;10.010;2023-12-28T05:08:18;8.60;99.90
59282;DHT22;45054;52.062;10.010;2023-12-28T05:10:43;8.70;99.90
59282;DHT22;45054;52.062;10.010;2023-12-28T05:13:10;8.70;99.90
59282;DHT22;45054;52.062;10.010;2023-12-28T05:15:36;8.70;99.90
59282;DHT22;45054;52.062;10.010;2023-12-28T05:18:01;8.70;99.90
59282;DHT22;45054;52.062;10.010;2023-12-28T05:20:27;8.80;99.90
59282;DHT22;45054;52.062;10.010;2023-12-28T05:22:52;8.70;99.90
59282;DHT22;45054;52.062;10.010;2023-12-28T05:25:18;8.80;99.90
59282;DHT22;45054;52.062;10.010;2023-12-28T05:27:44;8.70;99.90
59282;DHT22;45054;52.062;10.010;2023-12-28T05:30:11;8.70;99.90
59282;DHT22;45054;52.062;10.010;2023-12-28T05:32:36;8.70;99.90
59282;DHT22;45054;52.062;10.010;2023-12-28T05:35:02;8.70;99.90
59282;DHT22;45054;52.062;10.010;2023-12-28T05:37:28;8.70;99.90
59282;DHT22;45054;52.062;10.010;2023-12-28T05:39:54;8.60;99.90
59282;DHT22;45054;52.062;10.010;2023-12-28T05:42:19;8.60;99.90
59282;DHT22;45054;52.062;10.010;2023-12-28T05:44:45;8.60;99.90
59282;DHT22;45054;52.062;10.010;2023-12-28T05:47:12;8.50;99.90
59282;DHT22;45054;52.062;10.010;2023-12-28T05:49:38;8.50;99.90
59282;DHT22;45054;52.062;10.010;2023-12-28T05:52:03;8.50;99.90
59282;DHT22;45054;52.062;10.010;2023-12-28T05:54:29;8.40;99.90
59282;DHT22;45054;52.062;10.010;2023-12-28T05:56:54;8.40;99.90
59282;DHT22;45054;52.062;10.010;2023-12-28T05:59:20;8.30;99.90
59282;DHT22;45054;52.062;10.010;2023-12-28T06:01:45;8.30;99.90
59282;DHT22;45054;52.062;10.010;2023-12-28T06:04:12;8.30;99.90
59282;DHT22;45054;52.062;10.010;2023-12-28T06:06:38;8.20;99.90
59282;DHT22;45054;52.062;10.010;2023-12-28T06:09:03;8.30;99.90
59282;DHT22;45054;52.062;10.010;2023-12-28T06:11:29;8.20;99.90
59282;DHT22;45054;52.062;10.010;2023-12-28T06:13:55;8.20;99.90
59282;DHT22;45054;52.062;10.010;2023-12-28T06:16:23;8.20;99.90
59282;DHT22;45054;52.062;10.010;2023-12-28T06:18:49;8.20;99.90
59282;DHT22;45054;52.062;10.010;2023-12-28T06:21:16;8.20;99.90
59282;DHT22;45054;52.062;10.010;2023-12-28T06:23:41;8.20;99.90
59282;DHT22;45054;52.062;10.010;2023-12-28T06:26:07;8.20;99.90
59282;DHT22;45054;52.062;10.010;2023-12-28T06:28:33;8.10;99.90
59282;DHT22;45054;52.062;10.010;2023-12-28T06:30:58;8.10;99.90
59282;DHT22;45054;52.062;10.010;2023-12-28T06:33:24;8.10;99.90
59282;DHT22;45054;52.062;10.010;2023-12-28T06:35:49;8.10;99.90
59282;DHT22;45054;52.062;10.010;2023-12-28T06:38:16;8.10;99.90
59282;DHT22;45054;52.062;10.010;2023-12-28T06:40:42;8.10;99.90
59282;DHT22;45054;52.062;10.010;2023-12-28T06:43:07;8.10;99.90
59282;DHT22;45054;52.062;10.010;2023-12-28T06:45:33;8.10;99.90
59282;DHT22;45054;52.062;10.010;2023-12-28T06:47:58;8.10;99.90
59282;DHT22;45054;52.062;10.010;2023-12-28T06:50:24;8.10;99.90
59282;DHT22;45054;52.062;10.010;2023-12-28T06:52:49;8.10;99.90
59282;DHT22;45054;52.062;10.010;2023-12-28T06:55:16;8.10;99.90
59282;DHT22;45054;52.062;10.010;2023-12-28T06:57:42;8.10;99.90
59282;DHT22;45054;52.062;10.010;2023-12-28T07:00:09;8.10;99.90
59282;DHT22;45054;52.062;10.010;2023-12-28T07:02:34;8.10;99.90
59282;DHT22;45054;52.062;10.010;2023-12-28T07:05:00;8.10;99.90
59282;DHT22;45054;52.062;10.010;2023-12-28T07:07:25;8.10;99.90
59282;DHT22;45054;52.062;10.010;2023-12-28T07:09:51;8.10;99.90
59282;DHT22;45054;52.062;10.010;2023-12-28T07:12:18;8.10;99.90
59282;DHT22;45054;52.062;10.010;2023-12-28T07:14:43;8.10;99.90
59282;DHT22;45054;52.062;10.010;2023-12-28T07:17:09;8.10;99.90
59282;DHT22;45054;52.062;10.010;2023-12-28T07:19:35;8.10;99.90
59282;DHT22;45054;52.062;10.010;2023-12-28T07:22:00;8.10;99.90
59282;DHT22;45054;52.062;10.010;2023-12-28T07:24:26;8.10;99.90
59282;DHT22;45054;52.062;10.010;2023-12-28T07:26:52;8.10;99.90
59282;DHT22;45054;52.062;10.010;2023-12-28T07:29:18;8.10;99.90
59282;DHT22;45054;52.062;10.010;2023-12-28T07:31:44;8.10;99.90
59282;DHT22;45054;52.062;10.010;2023-12-28T07:34:10;8.10;99.90
59282;DHT22;45054;52.062;10.010;2023-12-28T07:36:35;8.10;99.90
59282;DHT22;45054;52.062;10.010;2023-12-28T07:39:01;8.00;99.90
59282;DHT22;45054;52.062;10.010;2023-12-28T07:41:26;8.10;99.90
59282;DHT22;45054;52.062;10.010;2023-12-28T07:43:52;8.10;99.90
59282;DHT22;45054;52.062;10.010;2023-12-28T07:46:19;8.10;99.90
59282;DHT22;45054;52.062;10.010;2023-12-28T07:48:44;8.10;99.90
59282;DHT22;45054;52.062;10.010;2023-12-28T07:51:12;8.10;99.90
59282;DHT22;45054;52.062;10.010;2023-12-28T07:53:38;8.10;99.90
59282;DHT22;45054;52.062;10.010;2023-12-28T07:56:04;8.10;99.90
59282;DHT22;45054;52.062;10.010;2023-12-28T07:58:30;8.10;99.90
59282;DHT22;45054;52.062;10.010;2023-12-28T08:00:56;8.00;99.90
59282;DHT22;45054;52.062;10.010;2023-12-28T08:03:22;8.00;99.90
59282;DHT22;45054;52.062;10.010;2023-12-28T08:05:48;8.00;99.90
59282;DHT22;45054;52.062;10.010;2023-12-28T08:08:14;8.00;99.90
59282;DHT22;45054;52.062;10.010;2023-12-28T08:10:39;8.00;99.90
59282;DHT22;45054;52.062;10.010;2023-12-28T08:13:05;8.10;99.90
59282;DHT22;45054;52.062;10.010;2023-12-28T08:15:30;8.10;99.90
59282;DHT22;45054;52.062;10.010;2023-12-28T08:17:56;8.10;99.90
59282;DHT22;45054;52.062;10.010;2023-12-28T08:20:22;8.20;99.90
59282;DHT22;45054;52.062;10.010;2023-12-28T08:22:48;8.20;99.90
59282;DHT22;45054;52.062;10.010;2023-12-28T08:25:14;8.20;99.90
59282;DHT22;45054;52.062;10.010;2023-12-28T08:27:39;8.20;99.90
59282;DHT22;45054;52.062;10.010;2023-12-28T08:30:06;8.30;99.90
59282;DHT22;45054;52.062;10.010;2023-12-28T08:32:32;8.20;99.90
59282;DHT22;45054;52.062;10.010;2023-12-28T08:34:57;8.20;99.90
59282;DHT22;45054;52.062;10.010;2023-12-28T08:37:24;8.20;99.90
59282;DHT22;45054;52.062;10.010;2023-12-28T08:39:50;8.20;99.90
59282;DHT22;45054;52.062;10.010;2023-12-28T08:42:15;8.20;99.90
59282;DHT22;45054;52.062;10.010;2023-12-28T08:44:41;8.20;99.90
59282;DHT22;45054;52.062;10.010;2023-12-28T08:47:06;8.20;99.90
59282;DHT22;45054;52.062;10.010;2023-12-28T08:49:32;8.20;99.90
59282;DHT22;45054;52.062;10.010;2023-12-28T08:52:01;8.20;99.90
59282;DHT22;45054;52.062;10.010;2023-12-28T08:54:28;8.20;99.90
59282;DHT22;45054;52.062;10.010;2023-12-28T08:56:54;8.20;99.90
59282;DHT22;45054;52.062;10.010;2023-12-28T08:59:20;8.20;99.90
59282;DHT22;45054;52.062;10.010;2023-12-28T09:01:47;8.20;99.90
59282;DHT22;45054;52.062;10.010;2023-12-28T09:04:13;8.20;99.90
59282;DHT22;45054;52.062;10.010;2023-12-28T09:06:39;8.30;99.90
59282;DHT22;45054;52.062;10.010;2023-12-28T09:09:04;8.30;99.90
59282;DHT22;45054;52.062;10.010;2023-12-28T09:11:32;8.40;99.90
59282;DHT22;45054;52.062;10.010;2023-12-28T09:13:57;8.40;99.90
59282;DHT22;45054;52.062;10.010;2023-12-28T09:16:23;8.40;99.90
59282;DHT22;45054;52.062;10.010;2023-12-28T09:18:48;8.40;99.90
59282;DHT22;45054;52.062;10.010;2023-12-28T09:21:14;8.50;99.90
59282;DHT22;45054;52.062;10.010;2023-12-28T09:23:39;8.50;99.90
59282;DHT22;45054;52.062;10.010;2023-12-28T09:26:05;8.60;99.90
59282;DHT22;45054;52.062;10.010;2023-12-28T09:28:33;8.60;99.90
59282;DHT22;45054;52.062;10.010;2023-12-28T09:30:59;8.70;99.90
59282;DHT22;45054;52.062;10.010;2023-12-28T09:33:25;8.70;99.90
59282;DHT22;45054;52.062;10.010;2023-12-28T09:35:50;8.80;99.90
59282;DHT22;45054;52.062;10.010;2023-12-28T09:38:16;8.90;99.90
59282;DHT22;45054;52.062;10.010;2023-12-28T09:40:41;8.90;99.90
59282;DHT22;45054;52.062;10.010;2023-12-28T09:43:12;8.90;99.90
59282;DHT22;45054;52.062;10.010;2023-12-28T09:45:39;8.90;99.90
59282;DHT22;45054;52.062;10.010;2023-12-28T09:48:06;8.90;99.90
59282;DHT22;45054;52.062;10.010;2023-12-28T09:50:32;9.00;99.90
59282;DHT22;45054;52.062;10.010;2023-12-28T09:52:58;9.10;99.90
59282;DHT22;45054;52.062;10.010;2023-12-28T09:55:23;9.10;99.90
59282;DHT22;45054;52.062;10.010;2023-12-28T09:57:49;9.10;99.90
59282;DHT22;45054;52.062;10.010;2023-12-28T10:00:15;9.10;99.90
59282;DHT22;45054;52.062;10.010;2023-12-28T10:02:44;9.20;99.90
59282;DHT22;45054;52.062;10.010;2023-12-28T10:05:11;9.20;99.90
59282;DHT22;45054;52.062;10.010;2023-12-28T10:07:41;9.20;99.90
59282;DHT22;45054;52.062;10.010;2023-12-28T10:10:07;9.20;99.90
59282;DHT22;45054;52.062;10.010;2023-12-28T10:12:33;9.20;99.90
59282;DHT22;45054;52.062;10.010;2023-12-28T10:14:58;9.30;99.90
59282;DHT22;45054;52.062;10.010;2023-12-28T10:17:25;9.40;99.90
59282;DHT22;45054;52.062;10.010;2023-12-28T10:19:53;9.40;99.90
59282;DHT22;45054;52.062;10.010;2023-12-28T10:22:19;9.50;99.90
59282;DHT22;45054;52.062;10.010;2023-12-28T10:24:45;9.40;99.90
59282;DHT22;45054;52.062;10.010;2023-12-28T10:27:11;9.50;99.90
59282;DHT22;45054;52.062;10.010;2023-12-28T10:29:37;9.50;99.90
59282;DHT22;45054;52.062;10.010;2023-12-28T10:32:03;9.60;99.90
59282;DHT22;45054;52.062;10.010;2023-12-28T10:34:29;9.70;99.90
59282;DHT22;45054;52.062;10.010;2023-12-28T10:36:56;9.70;99.90
59282;DHT22;45054;52.062;10.010;2023-12-28T10:39:24;9.70;99.90
59282;DHT22;45054;52.062;10.010;2023-12-28T10:41:51;9.70;99.90
59282;DHT22;45054;52.062;10.010;2023-12-28T10:44:20;9.70;99.90
59282;DHT22;45054;52.062;10.010;2023-12-28T10:46:48;9.80;99.90
59282;DHT22;45054;52.062;10.010;2023-12-28T10:49:16;9.80;99.90
59282;DHT22;45054;52.062;10.010;2023-12-28T10:51:43;9.90;99.90
59282;DHT22;45054;52.062;10.010;2023-12-28T10:54:21;9.90;99.90
59282;DHT22;45054;52.062;10.010;2023-12-28T10:56:54;10.00;99.90
59282;DHT22;45054;52.062;10.010;2023-12-28T10:59:39;10.00;99.90
59282;DHT22;45054;52.062;10.010;2023-12-28T11:02:09;10.00;99.90
59282;DHT22;45054;52.062;10.010;2023-12-28T11:04:41;10.00;99.90
59282;DHT22;45054;52.062;10.010;2023-12-28T11:07:09;10.00;99.90
59282;DHT22;45054;52.062;10.010;2023-12-28T11:09:41;10.10;99.90
59282;DHT22;45054;52.062;10.010;2023-12-28T11:12:08;10.10;99.90
59282;DHT22;45054;52.062;10.010;2023-12-28T11:14:34;10.10;99.90
59282;DHT22;45054;52.062;10.010;2023-12-28T11:17:00;10.10;99.90
59282;DHT22;45054;52.062;10.010;2023-12-28T11:19:26;10.20;99.90
59282;DHT22;45054;52.062;10.010;2023-12-28T11:21:52;10.20;99.90
59282;DHT22;45054;52.062;10.010;2023-12-28T11:24:19;10.30;99.90
59282;DHT22;45054;52.062;10.010;2023-12-28T11:26:52;10.30;99.90
59282;DHT22;45054;52.062;10.010;2023-12-28T11:29:18;10.40;99.90
59282;DHT22;45054;52.062;10.010;2023-12-28T11:31:50;10.40;99.90
59282;DHT22;45054;52.062;10.010;2023-12-28T11:34:16;10.50;99.90
59282;DHT22;45054;52.062;10.010;2023-12-28T11:36:46;10.60;99.90
59282;DHT22;45054;52.062;10.010;2023-12-28T11:39:19;10.60;99.90
59282;DHT22;45054;52.062;10.010;2023-12-28T11:41:46;10.60;99.90
59282;DHT22;45054;52.062;10.010;2023-12-28T11:44:12;10.70;99.90
59282;DHT22;45054;52.062;10.010;2023-12-28T11:46:38;10.70;99.90
59282;DHT22;45054;52.062;10.010;2023-12-28T11:49:04;10.70;99.90
59282;DHT22;45054;52.062;10.010;2023-12-28T11:51:29;10.70;99.90
59282;DHT22;45054;52.062;10.010;2023-12-28T11:53:55;10.80;99.90
59282;DHT22;45054;52.062;10.010;2023-12-28T11:56:21;10.90;99.90
59282;DHT22;45054;52.062;10.010;2023-12-28T11:58:48;10.90;99.90
59282;DHT22;45054;52.062;10.010;2023-12-28T12:01:14;11.00;99.90
59282;DHT22;45054;52.062;10.010;2023-12-28T12:03:39;11.10;99.90
59282;DHT22;45054;52.062;10.010;2023-12-28T12:06:05;11.00;99.90
59282;DHT22;45054;52.062;10.010;2023-12-28T12:08:31;11.00;99.90
59282;DHT22;45054;52.062;10.010;2023-12-28T12:11:00;11.00;99.90
59282;DHT22;45054;52.062;10.010;2023-12-28T12:13:27;11.00;99.90
59282;DHT22;45054;52.062;10.010;2023-12-28T12:15:54;11.00;99.90
59282;DHT22;45054;52.062;10.010;2023-12-28T12:18:19;11.00;99.90
59282;DHT22;45054;52.062;10.010;2023-12-28T12:20:45;11.00;99.90
59282;DHT22;45054;52.062;10.010;2023-12-28T12:23:11;11.00;99.90
59282;DHT22;45054;52.062;10.010;2023-12-28T12:25:36;11.00;99.90
59282;DHT22;45054;52.062;10.010;2023-12-28T12:28:02;11.00;99.90
59282;DHT22;45054;52.062;10.010;2023-12-28T12:30:27;11.00;99.90
59282;DHT22;45054;52.062;10.010;2023-12-28T12:32:54;10.90;99.90
59282;DHT22;45054;52.062;10.010;2023-12-28T12:35:20;11.00;99.90
59282;DHT22;45054;52.062;10.010;2023-12-28T12:37:45;11.00;99.90
59282;DHT22;45054;52.062;10.010;2023-12-28T12:40:11;11.00;99.90
59282;DHT22;45054;52.062;10.010;2023-12-28T12:42:37;11.00;99.90
59282;DHT22;45054;52.062;10.010;2023-12-28T12:45:03;10.90;99.90
59282;DHT22;45054;52.062;10.010;2023-12-28T12:47:32;11.00;99.90
59282;DHT22;45054;52.062;10.010;2023-12-28T12:49:59;11.00;99.90
59282;DHT22;45054;52.062;10.010;2023-12-28T12:52:25;11.00;99.90
59282;DHT22;45054;52.062;10.010;2023-12-28T12:54:56;11.00;99.90
59282;DHT22;45054;52.062;10.010;2023-12-28T12:57:21;11.00;99.90
59282;DHT22;45054;52.062;10.010;2023-12-28T12:59:47;11.00;99.90
59282;DHT22;45054;52.062;10.010;2023-12-28T13:02:13;11.00;99.90
59282;DHT22;45054;52.062;10.010;2023-12-28T13:04:38;11.00;99.90
59282;DHT22;45054;52.062;10.010;2023-12-28T13:07:05;10.90;99.90
59282;DHT22;45054;52.062;10.010;2023-12-28T13:09:31;10.90;99.90
59282;DHT22;45054;52.062;10.010;2023-12-28T13:11:56;11.00;99.90
59282;DHT22;45054;52.062;10.010;2023-12-28T13:14:22;10.90;99.90
59282;DHT22;45054;52.062;10.010;2023-12-28T13:16:47;10.90;99.90
59282;DHT22;45054;52.062;10.010;2023-12-28T13:19:13;10.90;99.90
59282;DHT22;45054;52.062;10.010;2023-12-28T13:21:39;10.90;99.90
59282;DHT22;45054;52.062;10.010;2023-12-28T13:24:06;11.00;99.90
59282;DHT22;45054;52.062;10.010;2023-12-28T13:26:32;11.00;99.90
59282;DHT22;45054;52.062;10.010;2023-12-28T13:28:57;11.00;99.90
59282;DHT22;45054;52.062;10.010;2023-12-28T13:31:23;11.00;99.90
59282;DHT22;45054;52.062;10.010;2023-12-28T13:33:49;11.00;99.90
59282;DHT22;45054;52.062;10.010;2023-12-28T13:36:14;10.90;99.90
59282;DHT22;45054;52.062;10.010;2023-12-28T13:38:40;11.00;99.90
59282;DHT22;45054;52.062;10.010;2023-12-28T13:41:06;10.90;99.90
59282;DHT22;45054;52.062;10.010;2023-12-28T13:43:32;11.00;99.90
59282;DHT22;45054;52.062;10.010;2023-12-28T13:45:58;10.90;99.90
59282;DHT22;45054;52.062;10.010;2023-12-28T13:48:23;10.90;99.90
59282;DHT22;45054;52.062;10.010;2023-12-28T13:50:49;11.00;99.90
59282;DHT22;45054;52.062;10.010;2023-12-28T13:53:14;11.00;99.90
59282;DHT22;45054;52.062;10.010;2023-12-28T13:55:40;11.00;99.90
59282;DHT22;45054;52.062;10.010;2023-12-28T13:58:07;11.00;99.90
59282;DHT22;45054;52.062;10.010;2023-12-28T14:00:32;10.90;99.90
59282;DHT22;45054;52.062;10.010;2023-12-28T14:02:58;10.90;99.90
59282;DHT22;45054;52.062;10.010;2023-12-28T14:05:23;10.90;99.90
59282;DHT22;45054;52.062;10.010;2023-12-28T14:07:49;10.90;99.90
59282;DHT22;45054;52.062;10.010;2023-12-28T14:10:14;10.90;99.90
59282;DHT22;45054;52.062;10.010;2023-12-28T14:12:40;10.90;99.90
59282;DHT22;45054;52.062;10.010;2023-12-28T14:15:08;10.90;99.90
59282;DHT22;45054;52.062;10.010;2023-12-28T14:17:34;10.90;99.90
59282;DHT22;45054;52.062;10.010;2023-12-28T14:19:59;10.80;99.90
59282;DHT22;45054;52.062;10.010;2023-12-28T14:22:25;10.80;99.90
59282;DHT22;45054;52.062;10.010;2023-12-28T14:24:52;10.80;99.90
59282;DHT22;45054;52.062;10.010;2023-12-28T14:27:18;10.80;99.90
59282;DHT22;45054;52.062;10.010;2023-12-28T14:29:44;10.80;99.90
59282;DHT22;45054;52.062;10.010;2023-12-28T14:32:13;10.80;99.90
59282;DHT22;45054;52.062;10.010;2023-12-28T14:34:39;10.80;99.90
59282;DHT22;45054;52.062;10.010;2023-12-28T14:37:04;10.80;99.90
59282;DHT22;45054;52.062;10.010;2023-12-28T14:39:30;10.80;99.90
59282;DHT22;45054;52.062;10.010;2023-12-28T14:41:56;10.80;99.90
59282;DHT22;45054;52.062;10.010;2023-12-28T14:44:21;10.80;99.90
59282;DHT22;45054;52.062;10.010;2023-12-28T14:46:47;10.70;99.90
59282;DHT22;45054;52.062;10.010;2023-12-28T14:49:14;10.80;99.90
59282;DHT22;45054;52.062;10.010;2023-12-28T14:51:39;10.80;99.90
59282;DHT22;45054;52.062;10.010;2023-12-28T14:54:05;10.70;99.90
59282;DHT22;45054;52.062;10.010;2023-12-28T14:56:31;10.70;99.90
59282;DHT22;45054;52.062;10.010;2023-12-28T14:58:56;10.70;99.90
59282;DHT22;45054;52.062;10.010;2023-12-28T15:01:22;10.60;99.90
59282;DHT22;45054;52.062;10.010;2023-12-28T15:03:47;10.60;99.90
59282;DHT22;45054;52.062;10.010;2023-12-28T15:06:14;10.60;99.90
59282;DHT22;45054;52.062;10.010;2023-12-28T15:08:40;10.60;99.90
59282;DHT22;45054;52.062;10.010;2023-12-28T15:11:06;10.50;99.90
59282;DHT22;45054;52.062;10.010;2023-12-28T15:13:32;10.50;99.90
59282;DHT22;45054;52.062;10.010;2023-12-28T15:15:59;10.50;99.90
59282;DHT22;45054;52.062;10.010;2023-12-28T15:18:25;10.50;99.90
59282;DHT22;45054;52.062;10.010;2023-12-28T15:20:51;10.40;99.90